sensor_id;sensor_type;location;lat;lon;timestamp;P1;durP1;ratioP1;P2;durP2;ratioP2
27566;SDS011;15006;48.584;9.186;2023-01-30T00:01:37;34.25;;;19.38;;
27566;SDS011;15006;48.584;9.186;2023-01-30T00:04:15;31.33;;;20.02;;
27566;SDS011;15006;48.584;9.186;2023-01-30T00:06:44;32.33;;;19.40;;
27566;SDS011;15006;48.584;9.186;2023-01-30T00:09:13;32.55;;;19.35;;
27566;SDS011;15006;48.584;9.186;2023-01-30T00:11:46;32.55;;;19.98;;
27566;SDS011;15006;48.584;9.186;2023-01-30T00:14:15;32.95;;;19.13;;
27566;SDS011;15006;48.584;9.186;2023-01-30T00:16:41;31.40;;;19.42;;
27566;SDS011;15006;48.584;9.186;2023-01-30T00:19:09;30.27;;;18.48;;
27566;SDS011;15006;48.584;9.186;2023-01-30T00:21:37;26.65;;;17.27;;
27566;SDS011;15006;48.584;9.186;2023-01-30T00:24:05;27.20;;;17.75;;
27566;SDS011;15006;48.584;9.186;2023-01-30T00:26:33;28.95;;;18.00;;
27566;SDS011;15006;48.584;9.186;2023-01-30T00:29:01;31.02;;;18.67;;
27566;SDS011;15006;48.584;9.186;2023-01-30T00:31:30;30.20;;;19.45;;
27566;SDS011;15006;48.584;9.186;2023-01-30T00:33:57;28.50;;;19.27;;
27566;SDS011;15006;48.584;9.186;2023-01-30T00:36:25;30.98;;;19.00;;
27566;SDS011;15006;48.584;9.186;2023-01-30T00:38:56;30.10;;;18.83;;
27566;SDS011;15006;48.584;9.186;2023-01-30T00:41:24;31.92;;;19.10;;
27566;SDS011;15006;48.584;9.186;2023-01-30T00:44:11;32.67;;;19.75;;
27566;SDS011;15006;48.584;9.186;2023-01-30T00:46:56;32.88;;;19.80;;
27566;SDS011;15006;48.584;9.186;2023-01-30T00:49:34;31.63;;;19.73;;
27566;SDS011;15006;48.584;9.186;2023-01-30T00:52:03;36.05;;;20.80;;
27566;SDS011;15006;48.584;9.186;2023-01-30T00:54:31;33.33;;;20.05;;
27566;SDS011;15006;48.584;9.186;2023-01-30T00:57:00;31.40;;;19.35;;
27566;SDS011;15006;48.584;9.186;2023-01-30T00:59:29;35.53;;;20.83;;
27566;SDS011;15006;48.584;9.186;2023-01-30T01:01:57;29.05;;;18.95;;
27566;SDS011;15006;48.584;9.186;2023-01-30T01:04:25;32.80;;;19.85;;
27566;SDS011;15006;48.584;9.186;2023-01-30T01:06:53;35.75;;;20.77;;
27566;SDS011;15006;48.584;9.186;2023-01-30T01:09:21;33.00;;;20.63;;
27566;SDS011;15006;48.584;9.186;2023-01-30T01:11:49;30.90;;;19.55;;
27566;SDS011;15006;48.584;9.186;2023-01-30T01:14:19;32.50;;;19.05;;
27566;SDS011;15006;48.584;9.186;2023-01-30T01:16:51;35.15;;;21.20;;
27566;SDS011;15006;48.584;9.186;2023-01-30T01:19:22;35.17;;;19.98;;
27566;SDS011;15006;48.584;9.186;2023-01-30T01:21:50;32.60;;;19.05;;
27566;SDS011;15006;48.584;9.186;2023-01-30T01:24:18;31.15;;;19.05;;
27566;SDS011;15006;48.584;9.186;2023-01-30T01:26:47;32.90;;;19.77;;
27566;SDS011;15006;48.584;9.186;2023-01-30T01:29:15;31.73;;;19.20;;
27566;SDS011;15006;48.584;9.186;2023-01-30T01:31:44;32.83;;;19.60;;
27566;SDS011;15006;48.584;9.186;2023-01-30T01:34:11;32.67;;;18.77;;
27566;SDS011;15006;48.584;9.186;2023-01-30T01:36:39;33.28;;;18.70;;
27566;SDS011;15006;48.584;9.186;2023-01-30T01:39:06;29.52;;;18.60;;
27566;SDS011;15006;48.584;9.186;2023-01-30T01:41:33;29.95;;;19.30;;
27566;SDS011;15006;48.584;9.186;2023-01-30T01:44:08;30.58;;;19.15;;
27566;SDS011;15006;48.584;9.186;2023-01-30T01:46:37;30.50;;;18.38;;
27566;SDS011;15006;48.584;9.186;2023-01-30T01:49:31;27.40;;;17.70;;
27566;SDS011;15006;48.584;9.186;2023-01-30T01:52:03;29.90;;;18.30;;
27566;SDS011;15006;48.584;9.186;2023-01-30T01:57:32;27.33;;;17.55;;
27566;SDS011;15006;48.584;9.186;2023-01-30T02:00:05;27.50;;;17.45;;
27566;SDS011;15006;48.584;9.186;2023-01-30T02:02:48;32.70;;;19.05;;
27566;SDS011;15006;48.584;9.186;2023-01-30T02:05:49;28.65;;;18.27;;
27566;SDS011;15006;48.584;9.186;2023-01-30T02:08:27;30.17;;;18.45;;
27566;SDS011;15006;48.584;9.186;2023-01-30T02:14:18;29.02;;;17.80;;
27566;SDS011;15006;48.584;9.186;2023-01-30T02:16:47;27.75;;;18.52;;
27566;SDS011;15006;48.584;9.186;2023-01-30T02:19:33;31.38;;;18.73;;
27566;SDS011;15006;48.584;9.186;2023-01-30T02:45:51;30.45;;;18.15;;
27566;SDS011;15006;48.584;9.186;2023-01-30T02:48:47;31.58;;;18.60;;
27566;SDS011;15006;48.584;9.186;2023-01-30T02:51:56;28.55;;;18.35;;
27566;SDS011;15006;48.584;9.186;2023-01-30T02:54:29;28.67;;;18.40;;
27566;SDS011;15006;48.584;9.186;2023-01-30T02:56:57;30.75;;;18.40;;
27566;SDS011;15006;48.584;9.186;2023-01-30T02:59:28;27.25;;;18.25;;
27566;SDS011;15006;48.584;9.186;2023-01-30T03:11:19;32.03;;;18.23;;
27566;SDS011;15006;48.584;9.186;2023-01-30T03:13:58;27.55;;;17.85;;
27566;SDS011;15006;48.584;9.186;2023-01-30T03:16:38;31.80;;;18.67;;
27566;SDS011;15006;48.584;9.186;2023-01-30T03:19:09;28.70;;;17.80;;
27566;SDS011;15006;48.584;9.186;2023-01-30T03:21:40;28.08;;;17.48;;
27566;SDS011;15006;48.584;9.186;2023-01-30T03:24:13;28.20;;;17.08;;
27566;SDS011;15006;48.584;9.186;2023-01-30T03:26:43;26.67;;;17.45;;
27566;SDS011;15006;48.584;9.186;2023-01-30T03:29:20;27.17;;;17.58;;
27566;SDS011;15006;48.584;9.186;2023-01-30T03:31:47;29.75;;;17.85;;
27566;SDS011;15006;48.584;9.186;2023-01-30T03:34:13;27.48;;;17.75;;
27566;SDS011;15006;48.584;9.186;2023-01-30T03:36:39;28.55;;;18.50;;
27566;SDS011;15006;48.584;9.186;2023-01-30T03:39:05;33.80;;;19.17;;
27566;SDS011;15006;48.584;9.186;2023-01-30T03:41:32;34.35;;;19.60;;
27566;SDS011;15006;48.584;9.186;2023-01-30T03:43:58;32.50;;;19.63;;
27566;SDS011;15006;48.584;9.186;2023-01-30T03:46:24;33.50;;;19.23;;
27566;SDS011;15006;48.584;9.186;2023-01-30T03:48:50;34.55;;;20.02;;
27566;SDS011;15006;48.584;9.186;2023-01-30T03:51:16;31.83;;;19.17;;
27566;SDS011;15006;48.584;9.186;2023-01-30T03:53:42;31.92;;;19.00;;
27566;SDS011;15006;48.584;9.186;2023-01-30T03:56:08;28.65;;;18.77;;
27566;SDS011;15006;48.584;9.186;2023-01-30T03:58:34;28.27;;;18.58;;
27566;SDS011;15006;48.584;9.186;2023-01-30T04:01:00;31.48;;;17.58;;
27566;SDS011;15006;48.584;9.186;2023-01-30T04:03:27;27.90;;;18.17;;
27566;SDS011;15006;48.584;9.186;2023-01-30T04:05:53;27.58;;;17.27;;
27566;SDS011;15006;48.584;9.186;2023-01-30T04:08:18;28.98;;;17.13;;
27566;SDS011;15006;48.584;9.186;2023-01-30T04:10:44;24.98;;;16.67;;
27566;SDS011;15006;48.584;9.186;2023-01-30T04:13:10;26.60;;;17.23;;
27566;SDS011;15006;48.584;9.186;2023-01-30T04:15:36;28.70;;;17.60;;
27566;SDS011;15006;48.584;9.186;2023-01-30T04:18:02;28.98;;;18.27;;
27566;SDS011;15006;48.584;9.186;2023-01-30T04:20:29;23.83;;;16.88;;
27566;SDS011;15006;48.584;9.186;2023-01-30T04:22:55;31.42;;;18.25;;
27566;SDS011;15006;48.584;9.186;2023-01-30T04:25:21;27.30;;;17.25;;
27566;SDS011;15006;48.584;9.186;2023-01-30T04:27:47;29.58;;;17.17;;
27566;SDS011;15006;48.584;9.186;2023-01-30T04:30:13;29.85;;;17.83;;
27566;SDS011;15006;48.584;9.186;2023-01-30T04:32:39;29.83;;;17.30;;
27566;SDS011;15006;48.584;9.186;2023-01-30T04:35:05;33.78;;;19.17;;
27566;SDS011;15006;48.584;9.186;2023-01-30T04:37:31;36.80;;;20.33;;
27566;SDS011;15006;48.584;9.186;2023-01-30T04:39:57;29.27;;;16.90;;
27566;SDS011;15006;48.584;9.186;2023-01-30T04:42:23;29.27;;;17.88;;
27566;SDS011;15006;48.584;9.186;2023-01-30T04:44:49;29.23;;;17.35;;
27566;SDS011;15006;48.584;9.186;2023-01-30T04:47:15;29.48;;;18.23;;
27566;SDS011;15006;48.584;9.186;2023-01-30T04:49:41;27.33;;;17.52;;
27566;SDS011;15006;48.584;9.186;2023-01-30T04:52:07;25.75;;;16.40;;
27566;SDS011;15006;48.584;9.186;2023-01-30T04:54:33;26.95;;;17.38;;
27566;SDS011;15006;48.584;9.186;2023-01-30T04:56:59;24.60;;;16.52;;
27566;SDS011;15006;48.584;9.186;2023-01-30T04:59:25;25.98;;;16.85;;
27566;SDS011;15006;48.584;9.186;2023-01-30T05:01:51;25.77;;;17.13;;
27566;SDS011;15006;48.584;9.186;2023-01-30T05:04:17;28.88;;;17.42;;
27566;SDS011;15006;48.584;9.186;2023-01-30T05:06:43;27.60;;;16.65;;
27566;SDS011;15006;48.584;9.186;2023-01-30T05:09:09;29.05;;;16.83;;
27566;SDS011;15006;48.584;9.186;2023-01-30T05:11:35;27.40;;;17.48;;
27566;SDS011;15006;48.584;9.186;2023-01-30T05:14:02;25.55;;;16.60;;
27566;SDS011;15006;48.584;9.186;2023-01-30T05:16:28;23.77;;;16.23;;
27566;SDS011;15006;48.584;9.186;2023-01-30T05:18:55;21.85;;;15.55;;
27566;SDS011;15006;48.584;9.186;2023-01-30T05:21:22;25.25;;;16.00;;
27566;SDS011;15006;48.584;9.186;2023-01-30T05:23:52;25.00;;;15.93;;
27566;SDS011;15006;48.584;9.186;2023-01-30T05:26:19;24.60;;;15.90;;
27566;SDS011;15006;48.584;9.186;2023-01-30T05:28:50;24.77;;;15.25;;
27566;SDS011;15006;48.584;9.186;2023-01-30T05:31:21;24.30;;;16.05;;
27566;SDS011;15006;48.584;9.186;2023-01-30T05:33:48;24.02;;;15.55;;
27566;SDS011;15006;48.584;9.186;2023-01-30T05:36:17;21.67;;;15.18;;
27566;SDS011;15006;48.584;9.186;2023-01-30T05:38:44;22.98;;;15.85;;
27566;SDS011;15006;48.584;9.186;2023-01-30T05:41:11;23.98;;;14.93;;
27566;SDS011;15006;48.584;9.186;2023-01-30T05:43:39;22.35;;;15.90;;
27566;SDS011;15006;48.584;9.186;2023-01-30T05:46:05;21.02;;;14.27;;
27566;SDS011;15006;48.584;9.186;2023-01-30T05:48:32;19.67;;;14.23;;
27566;SDS011;15006;48.584;9.186;2023-01-30T05:50:59;22.13;;;14.55;;
27566;SDS011;15006;48.584;9.186;2023-01-30T05:53:26;23.25;;;14.60;;
27566;SDS011;15006;48.584;9.186;2023-01-30T05:55:55;22.85;;;14.80;;
27566;SDS011;15006;48.584;9.186;2023-01-30T05:58:22;23.10;;;15.70;;
27566;SDS011;15006;48.584;9.186;2023-01-30T06:00:49;22.65;;;14.68;;
27566;SDS011;15006;48.584;9.186;2023-01-30T06:03:15;24.48;;;15.30;;
27566;SDS011;15006;48.584;9.186;2023-01-30T06:05:41;22.48;;;15.30;;
27566;SDS011;15006;48.584;9.186;2023-01-30T06:08:07;20.25;;;14.30;;
27566;SDS011;15006;48.584;9.186;2023-01-30T06:10:36;19.80;;;13.95;;
27566;SDS011;15006;48.584;9.186;2023-01-30T06:13:02;18.80;;;13.60;;
27566;SDS011;15006;48.584;9.186;2023-01-30T06:15:29;18.85;;;12.32;;
27566;SDS011;15006;48.584;9.186;2023-01-30T06:17:55;20.58;;;13.32;;
27566;SDS011;15006;48.584;9.186;2023-01-30T06:20:21;21.35;;;14.05;;
27566;SDS011;15006;48.584;9.186;2023-01-30T06:22:47;17.95;;;12.80;;
27566;SDS011;15006;48.584;9.186;2023-01-30T06:25:13;16.40;;;12.38;;
27566;SDS011;15006;48.584;9.186;2023-01-30T06:27:40;21.73;;;13.77;;
27566;SDS011;15006;48.584;9.186;2023-01-30T06:30:07;18.90;;;13.18;;
27566;SDS011;15006;48.584;9.186;2023-01-30T06:32:34;16.08;;;12.55;;
27566;SDS011;15006;48.584;9.186;2023-01-30T06:35:01;17.20;;;11.88;;
27566;SDS011;15006;48.584;9.186;2023-01-30T06:37:27;18.77;;;12.50;;
27566;SDS011;15006;48.584;9.186;2023-01-30T06:39:53;18.48;;;13.00;;
27566;SDS011;15006;48.584;9.186;2023-01-30T06:42:19;17.95;;;12.48;;
27566;SDS011;15006;48.584;9.186;2023-01-30T06:44:46;19.95;;;13.18;;
27566;SDS011;15006;48.584;9.186;2023-01-30T06:47:12;17.70;;;12.48;;
27566;SDS011;15006;48.584;9.186;2023-01-30T06:49:37;18.05;;;12.40;;
27566;SDS011;15006;48.584;9.186;2023-01-30T06:52:03;14.52;;;11.48;;
27566;SDS011;15006;48.584;9.186;2023-01-30T06:54:30;16.17;;;12.25;;
27566;SDS011;15006;48.584;9.186;2023-01-30T06:56:56;17.73;;;12.27;;
27566;SDS011;15006;48.584;9.186;2023-01-30T06:59:22;16.35;;;11.85;;
27566;SDS011;15006;48.584;9.186;2023-01-30T07:01:48;16.05;;;11.80;;
27566;SDS011;15006;48.584;9.186;2023-01-30T07:04:14;19.02;;;11.43;;
27566;SDS011;15006;48.584;9.186;2023-01-30T07:06:40;15.65;;;11.60;;
27566;SDS011;15006;48.584;9.186;2023-01-30T07:09:06;15.55;;;11.95;;
27566;SDS011;15006;48.584;9.186;2023-01-30T07:11:32;15.00;;;11.32;;
27566;SDS011;15006;48.584;9.186;2023-01-30T07:13:58;15.77;;;11.63;;
27566;SDS011;15006;48.584;9.186;2023-01-30T07:16:24;16.73;;;11.77;;
27566;SDS011;15006;48.584;9.186;2023-01-30T07:18:56;20.00;;;11.95;;
27566;SDS011;15006;48.584;9.186;2023-01-30T07:21:26;16.85;;;12.48;;
27566;SDS011;15006;48.584;9.186;2023-01-30T07:23:52;17.17;;;11.45;;
27566;SDS011;15006;48.584;9.186;2023-01-30T07:26:18;14.95;;;11.35;;
27566;SDS011;15006;48.584;9.186;2023-01-30T07:28:44;15.45;;;11.60;;
27566;SDS011;15006;48.584;9.186;2023-01-30T07:31:10;15.90;;;11.35;;
27566;SDS011;15006;48.584;9.186;2023-01-30T07:33:36;16.30;;;11.75;;
27566;SDS011;15006;48.584;9.186;2023-01-30T07:36:02;15.85;;;11.70;;
27566;SDS011;15006;48.584;9.186;2023-01-30T07:38:28;14.35;;;11.18;;
27566;SDS011;15006;48.584;9.186;2023-01-30T07:40:56;16.95;;;11.30;;
27566;SDS011;15006;48.584;9.186;2023-01-30T07:43:22;14.40;;;10.30;;
27566;SDS011;15006;48.584;9.186;2023-01-30T07:45:48;14.38;;;10.45;;
27566;SDS011;15006;48.584;9.186;2023-01-30T07:48:16;14.80;;;10.85;;
27566;SDS011;15006;48.584;9.186;2023-01-30T07:50:43;11.27;;;10.07;;
27566;SDS011;15006;48.584;9.186;2023-01-30T07:53:11;14.05;;;9.98;;
27566;SDS011;15006;48.584;9.186;2023-01-30T07:55:39;16.17;;;10.77;;
27566;SDS011;15006;48.584;9.186;2023-01-30T07:58:06;12.80;;;10.07;;
27566;SDS011;15006;48.584;9.186;2023-01-30T08:00:32;11.80;;;9.50;;
27566;SDS011;15006;48.584;9.186;2023-01-30T08:02:58;14.13;;;9.82;;
27566;SDS011;15006;48.584;9.186;2023-01-30T08:05:24;12.18;;;9.90;;
27566;SDS011;15006;48.584;9.186;2023-01-30T08:07:51;13.63;;;10.35;;
27566;SDS011;15006;48.584;9.186;2023-01-30T08:10:20;12.85;;;10.18;;
27566;SDS011;15006;48.584;9.186;2023-01-30T08:12:48;14.35;;;9.90;;
27566;SDS011;15006;48.584;9.186;2023-01-30T08:15:16;13.02;;;10.07;;
27566;SDS011;15006;48.584;9.186;2023-01-30T08:17:42;11.73;;;9.63;;
27566;SDS011;15006;48.584;9.186;2023-01-30T08:20:08;12.85;;;9.50;;
27566;SDS011;15006;48.584;9.186;2023-01-30T08:22:35;12.38;;;10.10;;
27566;SDS011;15006;48.584;9.186;2023-01-30T08:25:01;11.35;;;9.50;;
27566;SDS011;15006;48.584;9.186;2023-01-30T08:27:27;12.23;;;9.10;;
27566;SDS011;15006;48.584;9.186;2023-01-30T08:29:53;12.93;;;9.20;;
27566;SDS011;15006;48.584;9.186;2023-01-30T08:32:19;12.52;;;9.68;;
27566;SDS011;15006;48.584;9.186;2023-01-30T08:34:45;11.57;;;9.18;;
27566;SDS011;15006;48.584;9.186;2023-01-30T08:37:11;13.25;;;9.93;;
27566;SDS011;15006;48.584;9.186;2023-01-30T08:39:36;12.15;;;9.68;;
27566;SDS011;15006;48.584;9.186;2023-01-30T08:42:02;14.25;;;9.27;;
27566;SDS011;15006;48.584;9.186;2023-01-30T08:44:28;11.63;;;9.48;;
27566;SDS011;15006;48.584;9.186;2023-01-30T08:46:54;10.40;;;9.25;;
27566;SDS011;15006;48.584;9.186;2023-01-30T08:49:20;11.18;;;8.98;;
27566;SDS011;15006;48.584;9.186;2023-01-30T08:51:47;10.88;;;9.52;;
27566;SDS011;15006;48.584;9.186;2023-01-30T08:54:13;8.98;;;7.85;;
27566;SDS011;15006;48.584;9.186;2023-01-30T08:56:39;10.38;;;8.88;;
27566;SDS011;15006;48.584;9.186;2023-01-30T08:59:06;11.13;;;9.32;;
27566;SDS011;15006;48.584;9.186;2023-01-30T09:01:32;10.93;;;9.00;;
27566;SDS011;15006;48.584;9.186;2023-01-30T09:03:58;10.52;;;8.75;;
27566;SDS011;15006;48.584;9.186;2023-01-30T09:06:24;10.73;;;9.05;;
27566;SDS011;15006;48.584;9.186;2023-01-30T09:08:50;12.75;;;9.35;;
27566;SDS011;15006;48.584;9.186;2023-01-30T09:11:16;10.65;;;9.25;;
27566;SDS011;15006;48.584;9.186;2023-01-30T09:13:42;11.75;;;9.18;;
27566;SDS011;15006;48.584;9.186;2023-01-30T09:16:11;11.13;;;8.15;;
27566;SDS011;15006;48.584;9.186;2023-01-30T09:18:38;9.30;;;8.40;;
27566;SDS011;15006;48.584;9.186;2023-01-30T09:21:06;9.82;;;8.38;;
27566;SDS011;15006;48.584;9.186;2023-01-30T09:23:33;10.48;;;8.55;;
27566;SDS011;15006;48.584;9.186;2023-01-30T09:26:00;10.02;;;8.60;;
27566;SDS011;15006;48.584;9.186;2023-01-30T09:28:26;9.35;;;8.43;;
27566;SDS011;15006;48.584;9.186;2023-01-30T09:30:55;9.18;;;7.47;;
27566;SDS011;15006;48.584;9.186;2023-01-30T09:33:22;10.32;;;8.25;;
27566;SDS011;15006;48.584;9.186;2023-01-30T09:35:49;9.40;;;7.70;;
27566;SDS011;15006;48.584;9.186;2023-01-30T09:38:15;9.43;;;7.63;;
27566;SDS011;15006;48.584;9.186;2023-01-30T09:40:52;8.00;;;7.20;;
27566;SDS011;15006;48.584;9.186;2023-01-30T09:44:00;7.35;;;6.65;;
27566;SDS011;15006;48.584;9.186;2023-01-30T09:47:14;7.97;;;7.10;;
27566;SDS011;15006;48.584;9.186;2023-01-30T09:50:15;8.00;;;7.05;;
27566;SDS011;15006;48.584;9.186;2023-01-30T09:53:12;7.82;;;7.10;;
27566;SDS011;15006;48.584;9.186;2023-01-30T09:55:47;7.25;;;6.65;;
27566;SDS011;15006;48.584;9.186;2023-01-30T09:58:20;8.57;;;7.45;;
27566;SDS011;15006;48.584;9.186;2023-01-30T10:00:53;10.32;;;7.35;;
27566;SDS011;15006;48.584;9.186;2023-01-30T10:03:28;8.32;;;7.38;;
27566;SDS011;15006;48.584;9.186;2023-01-30T10:06:04;7.63;;;6.93;;
27566;SDS011;15006;48.584;9.186;2023-01-30T10:08:39;8.75;;;6.40;;
27566;SDS011;15006;48.584;9.186;2023-01-30T10:11:26;8.63;;;6.60;;
27566;SDS011;15006;48.584;9.186;2023-01-30T10:14:25;9.27;;;6.60;;
27566;SDS011;15006;48.584;9.186;2023-01-30T10:25:33;7.80;;;6.70;;
27566;SDS011;15006;48.584;9.186;2023-01-30T10:30:55;9.90;;;6.05;;
27566;SDS011;15006;48.584;9.186;2023-01-30T10:33:35;6.07;;;5.50;;
27566;SDS011;15006;48.584;9.186;2023-01-30T10:36:31;5.78;;;5.35;;
27566;SDS011;15006;48.584;9.186;2023-01-30T10:42:28;6.10;;;5.60;;
27566;SDS011;15006;48.584;9.186;2023-01-30T10:45:11;5.55;;;5.05;;
27566;SDS011;15006;48.584;9.186;2023-01-30T10:50:29;6.15;;;5.65;;
27566;SDS011;15006;48.584;9.186;2023-01-30T10:53:14;6.20;;;5.60;;
27566;SDS011;15006;48.584;9.186;2023-01-30T10:55:55;7.68;;;5.50;;
27566;SDS011;15006;48.584;9.186;2023-01-30T10:59:05;5.50;;;5.07;;
27566;SDS011;15006;48.584;9.186;2023-01-30T11:02:01;5.80;;;5.30;;
27566;SDS011;15006;48.584;9.186;2023-01-30T11:04:53;6.70;;;5.85;;
27566;SDS011;15006;48.584;9.186;2023-01-30T11:07:24;7.53;;;5.85;;
27566;SDS011;15006;48.584;9.186;2023-01-30T11:09:55;7.15;;;5.72;;
27566;SDS011;15006;48.584;9.186;2023-01-30T11:12:22;5.63;;;5.20;;
27566;SDS011;15006;48.584;9.186;2023-01-30T11:17:31;5.00;;;4.57;;
27566;SDS011;15006;48.584;9.186;2023-01-30T11:22:37;6.45;;;4.88;;
27566;SDS011;15006;48.584;9.186;2023-01-30T11:25:24;4.53;;;4.13;;
27566;SDS011;15006;48.584;9.186;2023-01-30T11:27:52;4.30;;;3.95;;
27566;SDS011;15006;48.584;9.186;2023-01-30T11:30:34;4.57;;;3.50;;
27566;SDS011;15006;48.584;9.186;2023-01-30T11:35:51;4.00;;;3.40;;
27566;SDS011;15006;48.584;9.186;2023-01-30T11:38:29;3.33;;;3.10;;
27566;SDS011;15006;48.584;9.186;2023-01-30T11:43:31;3.60;;;3.40;;
27566;SDS011;15006;48.584;9.186;2023-01-30T11:45:59;4.88;;;3.05;;
27566;SDS011;15006;48.584;9.186;2023-01-30T11:48:28;4.47;;;3.35;;
27566;SDS011;15006;48.584;9.186;2023-01-30T11:51:04;4.38;;;4.03;;
27566;SDS011;15006;48.584;9.186;2023-01-30T11:53:39;3.50;;;3.30;;
27566;SDS011;15006;48.584;9.186;2023-01-30T11:56:21;3.95;;;3.65;;
27566;SDS011;15006;48.584;9.186;2023-01-30T11:59:05;4.32;;;3.90;;
27566;SDS011;15006;48.584;9.186;2023-01-30T12:02:10;4.13;;;3.83;;
27566;SDS011;15006;48.584;9.186;2023-01-30T12:04:58;5.13;;;3.60;;
27566;SDS011;15006;48.584;9.186;2023-01-30T12:07:41;4.30;;;3.90;;
27566;SDS011;15006;48.584;9.186;2023-01-30T12:12:54;7.82;;;3.67;;
27566;SDS011;15006;48.584;9.186;2023-01-30T12:15:38;3.85;;;3.65;;
27566;SDS011;15006;48.584;9.186;2023-01-30T12:21:00;4.45;;;4.15;;
27566;SDS011;15006;48.584;9.186;2023-01-30T12:23:37;4.55;;;4.25;;
27566;SDS011;15006;48.584;9.186;2023-01-30T12:31:53;4.28;;;3.97;;
27566;SDS011;15006;48.584;9.186;2023-01-30T12:34:32;6.10;;;4.55;;
27566;SDS011;15006;48.584;9.186;2023-01-30T12:39:54;4.97;;;4.53;;
27566;SDS011;15006;48.584;9.186;2023-01-30T12:45:48;4.70;;;4.32;;
27566;SDS011;15006;48.584;9.186;2023-01-30T12:48:33;4.38;;;4.07;;
27566;SDS011;15006;48.584;9.186;2023-01-30T12:54:21;4.63;;;4.22;;
27566;SDS011;15006;48.584;9.186;2023-01-30T13:06:05;5.00;;;4.50;;
27566;SDS011;15006;48.584;9.186;2023-01-30T13:11:52;4.65;;;4.25;;
27566;SDS011;15006;48.584;9.186;2023-01-30T13:17:38;4.95;;;4.55;;
27566;SDS011;15006;48.584;9.186;2023-01-30T13:25:48;5.03;;;4.63;;
27566;SDS011;15006;48.584;9.186;2023-01-30T13:28:35;5.15;;;4.75;;
27566;SDS011;15006;48.584;9.186;2023-01-30T13:31:10;5.35;;;4.85;;
27566;SDS011;15006;48.584;9.186;2023-01-30T13:33:41;5.38;;;4.97;;
27566;SDS011;15006;48.584;9.186;2023-01-30T13:41:40;4.60;;;4.30;;
27566;SDS011;15006;48.584;9.186;2023-01-30T13:44:16;5.03;;;4.65;;
27566;SDS011;15006;48.584;9.186;2023-01-30T13:46:48;5.32;;;4.97;;
27566;SDS011;15006;48.584;9.186;2023-01-30T13:52:07;5.78;;;5.28;;
27566;SDS011;15006;48.584;9.186;2023-01-30T13:55:52;6.35;;;5.75;;
27566;SDS011;15006;48.584;9.186;2023-01-30T13:58:37;5.95;;;5.45;;
27566;SDS011;15006;48.584;9.186;2023-01-30T14:01:23;6.13;;;5.63;;
27566;SDS011;15006;48.584;9.186;2023-01-30T14:18:40;6.72;;;6.13;;
27566;SDS011;15006;48.584;9.186;2023-01-30T14:20:47;7.75;;;6.95;;
27566;SDS011;15006;48.584;9.186;2023-01-30T14:25:48;7.15;;;6.55;;
27566;SDS011;15006;48.584;9.186;2023-01-30T14:30:49;10.13;;;6.43;;
27566;SDS011;15006;48.584;9.186;2023-01-30T14:35:44;8.02;;;7.18;;
27566;SDS011;15006;48.584;9.186;2023-01-30T14:38:13;7.50;;;6.80;;
27566;SDS011;15006;48.584;9.186;2023-01-30T14:40:43;8.23;;;7.20;;
27566;SDS011;15006;48.584;9.186;2023-01-30T14:43:50;10.63;;;7.60;;
27566;SDS011;15006;48.584;9.186;2023-01-30T14:49:00;12.80;;;7.60;;
27566;SDS011;15006;48.584;9.186;2023-01-30T14:56:55;10.13;;;7.53;;
27566;SDS011;15006;48.584;9.186;2023-01-30T14:59:34;8.60;;;7.07;;
27566;SDS011;15006;48.584;9.186;2023-01-30T15:02:27;8.25;;;6.85;;
27566;SDS011;15006;48.584;9.186;2023-01-30T15:07:29;8.05;;;7.25;;
27566;SDS011;15006;48.584;9.186;2023-01-30T15:13:22;7.63;;;6.82;;
27566;SDS011;15006;48.584;9.186;2023-01-30T15:26:18;14.55;;;7.82;;
27566;SDS011;15006;48.584;9.186;2023-01-30T15:32:18;8.82;;;7.47;;
27566;SDS011;15006;48.584;9.186;2023-01-30T15:35:15;7.47;;;6.78;;
27566;SDS011;15006;48.584;9.186;2023-01-30T15:42:42;7.00;;;6.30;;
27566;SDS011;15006;48.584;9.186;2023-01-30T15:47:50;6.13;;;5.63;;
27566;SDS011;15006;48.584;9.186;2023-01-30T15:50:26;6.72;;;6.15;;
27566;SDS011;15006;48.584;9.186;2023-01-30T15:52:52;7.68;;;6.13;;
27566;SDS011;15006;48.584;9.186;2023-01-30T15:57:59;6.13;;;5.63;;
27566;SDS011;15006;48.584;9.186;2023-01-30T16:00:32;7.65;;;6.05;;
27566;SDS011;15006;48.584;9.186;2023-01-30T16:03:02;6.47;;;5.88;;
27566;SDS011;15006;48.584;9.186;2023-01-30T16:05:31;6.32;;;5.72;;
27566;SDS011;15006;48.584;9.186;2023-01-30T16:07:57;10.15;;;5.88;;
27566;SDS011;15006;48.584;9.186;2023-01-30T16:10:34;5.90;;;5.50;;
27566;SDS011;15006;48.584;9.186;2023-01-30T16:13:09;6.10;;;5.50;;
27566;SDS011;15006;48.584;9.186;2023-01-30T16:15:40;6.05;;;5.55;;
27566;SDS011;15006;48.584;9.186;2023-01-30T16:18:35;5.78;;;5.30;;
27566;SDS011;15006;48.584;9.186;2023-01-30T16:21:16;5.82;;;5.22;;
27566;SDS011;15006;48.584;9.186;2023-01-30T16:26:57;5.72;;;5.22;;
27566;SDS011;15006;48.584;9.186;2023-01-30T16:29:27;5.78;;;5.13;;
27566;SDS011;15006;48.584;9.186;2023-01-30T16:31:55;5.78;;;5.28;;
27566;SDS011;15006;48.584;9.186;2023-01-30T16:34:35;6.05;;;5.55;;
27566;SDS011;15006;48.584;9.186;2023-01-30T16:37:21;5.75;;;5.35;;
27566;SDS011;15006;48.584;9.186;2023-01-30T16:42:39;5.38;;;4.85;;
27566;SDS011;15006;48.584;9.186;2023-01-30T16:50:41;5.32;;;4.82;;
27566;SDS011;15006;48.584;9.186;2023-01-30T16:53:12;5.13;;;4.72;;
27566;SDS011;15006;48.584;9.186;2023-01-30T16:55:53;6.00;;;4.35;;
27566;SDS011;15006;48.584;9.186;2023-01-30T16:58:30;5.30;;;4.38;;
27566;SDS011;15006;48.584;9.186;2023-01-30T17:01:02;5.43;;;4.82;;
27566;SDS011;15006;48.584;9.186;2023-01-30T17:03:35;6.05;;;5.32;;
27566;SDS011;15006;48.584;9.186;2023-01-30T17:06:08;5.60;;;5.03;;
27566;SDS011;15006;48.584;9.186;2023-01-30T17:08:52;5.85;;;5.25;;
27566;SDS011;15006;48.584;9.186;2023-01-30T17:17:01;8.82;;;6.20;;
27566;SDS011;15006;48.584;9.186;2023-01-30T17:19:30;6.47;;;5.85;;
27566;SDS011;15006;48.584;9.186;2023-01-30T17:21:57;5.65;;;5.15;;
27566;SDS011;15006;48.584;9.186;2023-01-30T17:24:25;6.18;;;5.47;;
27566;SDS011;15006;48.584;9.186;2023-01-30T17:27:02;9.30;;;6.50;;
27566;SDS011;15006;48.584;9.186;2023-01-30T17:29:30;6.25;;;5.65;;
27566;SDS011;15006;48.584;9.186;2023-01-30T17:31:57;6.25;;;5.65;;
27566;SDS011;15006;48.584;9.186;2023-01-30T17:34:24;13.40;;;7.57;;
27566;SDS011;15006;48.584;9.186;2023-01-30T17:36:51;6.85;;;6.25;;
27566;SDS011;15006;48.584;9.186;2023-01-30T17:39:19;10.68;;;6.70;;
27566;SDS011;15006;48.584;9.186;2023-01-30T17:41:47;16.25;;;9.30;;
27566;SDS011;15006;48.584;9.186;2023-01-30T17:44:13;12.38;;;7.93;;
27566;SDS011;15006;48.584;9.186;2023-01-30T17:46:41;15.90;;;9.07;;
27566;SDS011;15006;48.584;9.186;2023-01-30T17:49:14;10.23;;;6.53;;
27566;SDS011;15006;48.584;9.186;2023-01-30T17:54:07;11.23;;;6.47;;
27566;SDS011;15006;48.584;9.186;2023-01-30T17:56:39;6.50;;;5.82;;
27566;SDS011;15006;48.584;9.186;2023-01-30T17:59:11;6.45;;;5.85;;
27566;SDS011;15006;48.584;9.186;2023-01-30T18:01:41;6.28;;;5.65;;
27566;SDS011;15006;48.584;9.186;2023-01-30T18:04:08;6.28;;;5.68;;
27566;SDS011;15006;48.584;9.186;2023-01-30T18:06:34;6.43;;;5.82;;
27566;SDS011;15006;48.584;9.186;2023-01-30T18:09:02;7.00;;;6.30;;
27566;SDS011;15006;48.584;9.186;2023-01-30T18:11:29;6.75;;;6.15;;
27566;SDS011;15006;48.584;9.186;2023-01-30T18:13:55;6.00;;;5.60;;
27566;SDS011;15006;48.584;9.186;2023-01-30T18:16:28;6.40;;;5.90;;